sensor_id;sensor_type;location;lat;lon;timestamp;temperature;humidity
1049;DHT22;513;51.444;7.196;2023-04-03T00:00:18;0.90;99.90
1049;DHT22;513;51.444;7.196;2023-04-03T00:02:44;0.90;99.90
1049;DHT22;513;51.444;7.196;2023-04-03T00:05:11;1.00;99.90
1049;DHT22;513;51.444;7.196;2023-04-03T00:07:37;1.00;99.90
1049;DHT22;513;51.444;7.196;2023-04-03T00:10:05;1.00;99.90
1049;DHT22;513;51.444;7.196;2023-04-03T00:12:33;1.00;99.90
1049;DHT22;513;51.444;7.196;2023-04-03T00:14:59;1.00;99.90
1049;DHT22;513;51.444;7.196;2023-04-03T00:17:26;1.00;99.90
1049;DHT22;513;51.444;7.196;2023-04-03T00:19:52;1.00;99.90
1049;DHT22;513;51.444;7.196;2023-04-03T00:22:19;1.00;99.90
1049;DHT22;513;51.444;7.196;2023-04-03T00:24:45;1.00;99.90
1049;DHT22;513;51.444;7.196;2023-04-03T00:27:12;1.00;99.90
1049;DHT22;513;51.444;7.196;2023-04-03T00:29:40;1.00;99.90
1049;DHT22;513;51.444;7.196;2023-04-03T00:32:06;1.00;99.90
1049;DHT22;513;51.444;7.196;2023-04-03T00:34:33;1.00;99.90
1049;DHT22;513;51.444;7.196;2023-04-03T00:36:59;1.00;99.90
1049;DHT22;513;51.444;7.196;2023-04-03T00:39:26;1.00;99.90
1049;DHT22;513;51.444;7.196;2023-04-03T00:41:52;1.00;99.90
1049;DHT22;513;51.444;7.196;2023-04-03T00:44:23;1.00;99.90
1049;DHT22;513;51.444;7.196;2023-04-03T00:47:11;1.00;99.90
1049;DHT22;513;51.444;7.196;2023-04-03T00:49:37;1.00;99.90
1049;DHT22;513;51.444;7.196;2023-04-03T00:52:05;1.00;99.90
1049;DHT22;513;51.444;7.196;2023-04-03T00:54:32;1.00;99.90
1049;DHT22;513;51.444;7.196;2023-04-03T00:57:01;1.00;99.90
1049;DHT22;513;51.444;7.196;2023-04-03T00:59:30;1.00;99.90
1049;DHT22;513;51.444;7.196;2023-04-03T01:01:57;1.00;99.90
1049;DHT22;513;51.444;7.196;2023-04-03T01:04:28;0.90;99.90
1049;DHT22;513;51.444;7.196;2023-04-03T01:06:55;1.00;99.90
1049;DHT22;513;51.444;7.196;2023-04-03T01:09:22;1.00;99.90
1049;DHT22;513;51.444;7.196;2023-04-03T01:11:49;1.00;99.90
1049;DHT22;513;51.444;7.196;2023-04-03T01:14:15;1.00;99.90
1049;DHT22;513;51.444;7.196;2023-04-03T01:16:42;1.00;99.90
1049;DHT22;513;51.444;7.196;2023-04-03T01:19:10;1.10;99.90
1049;DHT22;513;51.444;7.196;2023-04-03T01:24:35;1.00;99.90
1049;DHT22;513;51.444;7.196;2023-04-03T01:27:05;1.00;99.90
1049;DHT22;513;51.444;7.196;2023-04-03T01:29:32;1.00;99.90
1049;DHT22;513;51.444;7.196;2023-04-03T01:32:00;1.00;99.90
1049;DHT22;513;51.444;7.196;2023-04-03T01:34:27;0.90;99.90
1049;DHT22;513;51.444;7.196;2023-04-03T01:36:54;0.90;99.90
1049;DHT22;513;51.444;7.196;2023-04-03T01:39:21;0.90;99.90
1049;DHT22;513;51.444;7.196;2023-04-03T01:41:48;0.90;99.90
1049;DHT22;513;51.444;7.196;2023-04-03T01:44:15;0.90;99.90
1049;DHT22;513;51.444;7.196;2023-04-03T01:46:41;0.90;99.90
1049;DHT22;513;51.444;7.196;2023-04-03T01:49:09;0.90;99.90
1049;DHT22;513;51.444;7.196;2023-04-03T01:51:36;0.80;99.90
1049;DHT22;513;51.444;7.196;2023-04-03T01:54:02;0.80;99.90
1049;DHT22;513;51.444;7.196;2023-04-03T01:56:29;0.80;99.90
1049;DHT22;513;51.444;7.196;2023-04-03T01:58:55;0.70;99.90
1049;DHT22;513;51.444;7.196;2023-04-03T02:01:22;0.70;99.90
1049;DHT22;513;51.444;7.196;2023-04-03T02:03:48;0.70;99.90
1049;DHT22;513;51.444;7.196;2023-04-03T02:06:16;0.60;99.90
1049;DHT22;513;51.444;7.196;2023-04-03T02:08:43;0.60;99.90
1049;DHT22;513;51.444;7.196;2023-04-03T02:11:09;0.60;99.90
1049;DHT22;513;51.444;7.196;2023-04-03T02:13:36;0.60;99.90
1049;DHT22;513;51.444;7.196;2023-04-03T02:16:06;0.50;99.90
1049;DHT22;513;51.444;7.196;2023-04-03T02:18:33;0.50;99.90
1049;DHT22;513;51.444;7.196;2023-04-03T02:20:59;0.50;99.90
1049;DHT22;513;51.444;7.196;2023-04-03T02:23:27;0.50;99.90
1049;DHT22;513;51.444;7.196;2023-04-03T02:26:01;0.50;99.90
1049;DHT22;513;51.444;7.196;2023-04-03T02:28:28;0.50;99.90
1049;DHT22;513;51.444;7.196;2023-04-03T02:30:54;0.50;99.90
1049;DHT22;513;51.444;7.196;2023-04-03T02:33:21;0.40;99.90
1049;DHT22;513;51.444;7.196;2023-04-03T02:35:51;0.40;99.90
1049;DHT22;513;51.444;7.196;2023-04-03T02:38:18;0.30;99.90
1049;DHT22;513;51.444;7.196;2023-04-03T02:40:46;0.30;99.90
1049;DHT22;513;51.444;7.196;2023-04-03T02:43:12;0.30;99.90
1049;DHT22;513;51.444;7.196;2023-04-03T02:45:39;0.30;99.90
1049;DHT22;513;51.444;7.196;2023-04-03T02:48:06;0.20;99.90
1049;DHT22;513;51.444;7.196;2023-04-03T02:50:32;0.20;99.90
1049;DHT22;513;51.444;7.196;2023-04-03T02:52:59;0.20;99.90
1049;DHT22;513;51.444;7.196;2023-04-03T02:55:26;0.20;99.90
1049;DHT22;513;51.444;7.196;2023-04-03T02:57:53;0.10;99.90
1049;DHT22;513;51.444;7.196;2023-04-03T03:00:20;0.10;99.90
1049;DHT22;513;51.444;7.196;2023-04-03T03:02:48;0.10;99.90
1049;DHT22;513;51.444;7.196;2023-04-03T03:05:15;0.00;99.90
1049;DHT22;513;51.444;7.196;2023-04-03T03:07:41;0.00;99.90
1049;DHT22;513;51.444;7.196;2023-04-03T03:10:08;0.00;99.90
1049;DHT22;513;51.444;7.196;2023-04-03T03:12:35;0.00;99.90
1049;DHT22;513;51.444;7.196;2023-04-03T03:15:03;0.10;99.90
1049;DHT22;513;51.444;7.196;2023-04-03T03:17:30;0.10;99.90
1049;DHT22;513;51.444;7.196;2023-04-03T03:19:56;0.10;99.90
1049;DHT22;513;51.444;7.196;2023-04-03T03:22:23;0.10;99.90
1049;DHT22;513;51.444;7.196;2023-04-03T03:24:49;0.10;99.90
1049;DHT22;513;51.444;7.196;2023-04-03T03:27:16;0.10;99.90
1049;DHT22;513;51.444;7.196;2023-04-03T03:29:42;0.10;99.90
1049;DHT22;513;51.444;7.196;2023-04-03T03:32:10;0.20;99.90
1049;DHT22;513;51.444;7.196;2023-04-03T03:34:37;0.20;99.90
1049;DHT22;513;51.444;7.196;2023-04-03T03:37:03;0.20;99.90
1049;DHT22;513;51.444;7.196;2023-04-03T03:39:30;0.20;99.90
1049;DHT22;513;51.444;7.196;2023-04-03T03:41:57;0.20;99.90
1049;DHT22;513;51.444;7.196;2023-04-03T03:44:23;0.20;99.90
1049;DHT22;513;51.444;7.196;2023-04-03T03:46:50;0.20;99.90
1049;DHT22;513;51.444;7.196;2023-04-03T03:49:18;0.20;99.90
1049;DHT22;513;51.444;7.196;2023-04-03T03:51:44;0.20;99.90
1049;DHT22;513;51.444;7.196;2023-04-03T03:54:11;0.20;99.90
1049;DHT22;513;51.444;7.196;2023-04-03T03:56:37;0.20;99.90
1049;DHT22;513;51.444;7.196;2023-04-03T03:59:04;0.20;99.90
1049;DHT22;513;51.444;7.196;2023-04-03T04:01:31;0.20;99.90
1049;DHT22;513;51.444;7.196;2023-04-03T04:03:57;0.10;99.90
1049;DHT22;513;51.444;7.196;2023-04-03T04:06:25;0.10;99.90
1049;DHT22;513;51.444;7.196;2023-04-03T04:08:52;0.10;99.90
1049;DHT22;513;51.444;7.196;2023-04-03T04:11:19;0.10;99.90
1049;DHT22;513;51.444;7.196;2023-04-03T04:13:46;0.00;99.90
1049;DHT22;513;51.444;7.196;2023-04-03T04:16:13;0.00;99.90
1049;DHT22;513;51.444;7.196;2023-04-03T04:18:39;0.00;99.90
1049;DHT22;513;51.444;7.196;2023-04-03T04:21:06;-0.10;99.90
1049;DHT22;513;51.444;7.196;2023-04-03T04:23:34;-0.10;99.90
1049;DHT22;513;51.444;7.196;2023-04-03T04:26:00;-0.10;99.90
1049;DHT22;513;51.444;7.196;2023-04-03T04:28:27;0.00;99.90
1049;DHT22;513;51.444;7.196;2023-04-03T04:30:54;0.00;99.90
1049;DHT22;513;51.444;7.196;2023-04-03T04:33:21;0.00;99.90
1049;DHT22;513;51.444;7.196;2023-04-03T04:35:47;0.00;99.90
1049;DHT22;513;51.444;7.196;2023-04-03T04:38:14;0.00;99.90
1049;DHT22;513;51.444;7.196;2023-04-03T04:40:42;0.00;99.90
1049;DHT22;513;51.444;7.196;2023-04-03T04:43:08;-0.10;99.90
1049;DHT22;513;51.444;7.196;2023-04-03T04:45:36;-0.10;99.90
1049;DHT22;513;51.444;7.196;2023-04-03T04:48:02;-0.10;99.90
1049;DHT22;513;51.444;7.196;2023-04-03T04:50:29;-0.10;99.90
1049;DHT22;513;51.444;7.196;2023-04-03T04:52:56;-0.10;99.90
1049;DHT22;513;51.444;7.196;2023-04-03T04:55:22;-0.20;99.90
1049;DHT22;513;51.444;7.196;2023-04-03T04:57:50;-0.20;99.90
1049;DHT22;513;51.444;7.196;2023-04-03T05:00:17;-0.20;99.90
1049;DHT22;513;51.444;7.196;2023-04-03T05:02:44;-0.20;99.90
1049;DHT22;513;51.444;7.196;2023-04-03T05:05:10;-0.20;99.90
1049;DHT22;513;51.444;7.196;2023-04-03T05:07:37;-0.30;99.90
1049;DHT22;513;51.444;7.196;2023-04-03T05:10:03;-0.30;99.90
1049;DHT22;513;51.444;7.196;2023-04-03T05:12:30;-0.30;99.90
1049;DHT22;513;51.444;7.196;2023-04-03T05:14:58;-0.30;99.90
1049;DHT22;513;51.444;7.196;2023-04-03T05:17:25;-0.30;99.90
1049;DHT22;513;51.444;7.196;2023-04-03T05:19:51;-0.30;99.90
1049;DHT22;513;51.444;7.196;2023-04-03T05:22:18;-0.30;99.90
1049;DHT22;513;51.444;7.196;2023-04-03T05:24:44;-0.30;99.90
1049;DHT22;513;51.444;7.196;2023-04-03T05:27:11;-0.20;99.90
1049;DHT22;513;51.444;7.196;2023-04-03T05:29:37;-0.20;99.90
1049;DHT22;513;51.444;7.196;2023-04-03T05:32:05;-0.20;99.90
1049;DHT22;513;51.444;7.196;2023-04-03T05:34:32;-0.10;99.90
1049;DHT22;513;51.444;7.196;2023-04-03T05:36:58;-0.10;99.90
1049;DHT22;513;51.444;7.196;2023-04-03T05:39:25;-0.10;99.90
1049;DHT22;513;51.444;7.196;2023-04-03T05:41:51;-0.10;99.90
1049;DHT22;513;51.444;7.196;2023-04-03T05:44:18;0.00;99.90
1049;DHT22;513;51.444;7.196;2023-04-03T05:46:44;0.00;99.90
1049;DHT22;513;51.444;7.196;2023-04-03T05:49:12;0.00;99.90
1049;DHT22;513;51.444;7.196;2023-04-03T05:51:39;0.00;99.90
1049;DHT22;513;51.444;7.196;2023-04-03T05:54:08;0.10;99.90
1049;DHT22;513;51.444;7.196;2023-04-03T05:56:36;0.10;99.90
1049;DHT22;513;51.444;7.196;2023-04-03T05:59:02;0.10;99.90
1049;DHT22;513;51.444;7.196;2023-04-03T06:01:29;0.20;99.90
1049;DHT22;513;51.444;7.196;2023-04-03T06:03:56;0.20;99.90
1049;DHT22;513;51.444;7.196;2023-04-03T06:06:25;0.20;99.90
1049;DHT22;513;51.444;7.196;2023-04-03T06:08:51;0.20;99.90
1049;DHT22;513;51.444;7.196;2023-04-03T06:11:18;0.30;99.90
1049;DHT22;513;51.444;7.196;2023-04-03T06:13:46;0.30;99.90
1049;DHT22;513;51.444;7.196;2023-04-03T06:16:13;0.40;99.90
1049;DHT22;513;51.444;7.196;2023-04-03T06:18:41;0.40;99.90
1049;DHT22;513;51.444;7.196;2023-04-03T06:21:08;0.50;99.90
1049;DHT22;513;51.444;7.196;2023-04-03T06:23:35;0.50;99.90
1049;DHT22;513;51.444;7.196;2023-04-03T06:26:02;0.60;99.90
1049;DHT22;513;51.444;7.196;2023-04-03T06:28:29;0.60;98.30
1049;DHT22;513;51.444;7.196;2023-04-03T06:30:55;0.60;96.40
1049;DHT22;513;51.444;7.196;2023-04-03T06:33:22;0.70;95.60
1049;DHT22;513;51.444;7.196;2023-04-03T06:35:48;0.70;91.70
1049;DHT22;513;51.444;7.196;2023-04-03T06:38:15;0.80;88.70
1049;DHT22;513;51.444;7.196;2023-04-03T06:40:45;0.90;85.10
1049;DHT22;513;51.444;7.196;2023-04-03T06:43:12;0.90;72.10
1049;DHT22;513;51.444;7.196;2023-04-03T06:45:38;1.00;64.40
1049;DHT22;513;51.444;7.196;2023-04-03T06:48:05;1.00;54.90
1049;DHT22;513;51.444;7.196;2023-04-03T06:50:32;1.10;48.30
1049;DHT22;513;51.444;7.196;2023-04-03T06:52:59;1.20;44.40
1049;DHT22;513;51.444;7.196;2023-04-03T06:55:26;1.20;11.60
1049;DHT22;513;51.444;7.196;2023-04-03T06:57:54;1.20;4.70
1049;DHT22;513;51.444;7.196;2023-04-03T07:00:20;1.20;15.90
1049;DHT22;513;51.444;7.196;2023-04-03T07:02:47;1.30;16.20
1049;DHT22;513;51.444;7.196;2023-04-03T07:05:14;1.30;1.00
1049;DHT22;513;51.444;7.196;2023-04-03T07:07:41;1.40;1.00
1049;DHT22;513;51.444;7.196;2023-04-03T07:10:08;1.60;1.00
1049;DHT22;513;51.444;7.196;2023-04-03T07:12:35;1.60;1.00
1049;DHT22;513;51.444;7.196;2023-04-03T07:15:03;1.60;1.00
1049;DHT22;513;51.444;7.196;2023-04-03T07:17:30;1.60;1.00
1049;DHT22;513;51.444;7.196;2023-04-03T07:19:57;1.70;1.00
1049;DHT22;513;51.444;7.196;2023-04-03T07:22:24;1.70;1.00
1049;DHT22;513;51.444;7.196;2023-04-03T07:24:50;1.70;1.00
1049;DHT22;513;51.444;7.196;2023-04-03T07:27:17;1.70;1.00
1049;DHT22;513;51.444;7.196;2023-04-03T07:29:43;1.80;1.00
1049;DHT22;513;51.444;7.196;2023-04-03T07:32:11;1.90;1.00
1049;DHT22;513;51.444;7.196;2023-04-03T07:34:38;2.00;1.00
1049;DHT22;513;51.444;7.196;2023-04-03T07:37:05;2.10;1.00
1049;DHT22;513;51.444;7.196;2023-04-03T07:39:31;2.20;1.00
1049;DHT22;513;51.444;7.196;2023-04-03T07:41:58;2.40;1.00
1049;DHT22;513;51.444;7.196;2023-04-03T07:44:25;2.40;1.00
1049;DHT22;513;51.444;7.196;2023-04-03T07:46:52;2.40;1.00
1049;DHT22;513;51.444;7.196;2023-04-03T07:49:21;2.40;1.00
1049;DHT22;513;51.444;7.196;2023-04-03T07:51:49;2.50;1.00
1049;DHT22;513;51.444;7.196;2023-04-03T07:54:16;2.50;1.00
1049;DHT22;513;51.444;7.196;2023-04-03T07:56:43;2.70;1.00
1049;DHT22;513;51.444;7.196;2023-04-03T07:59:10;2.90;1.00
1049;DHT22;513;51.444;7.196;2023-04-03T08:01:37;2.90;99.90
1049;DHT22;513;51.444;7.196;2023-04-03T08:04:04;2.80;99.90
1049;DHT22;513;51.444;7.196;2023-04-03T08:06:32;2.70;99.90
1049;DHT22;513;51.444;7.196;2023-04-03T08:09:01;2.70;99.90
1049;DHT22;513;51.444;7.196;2023-04-03T08:11:29;2.70;99.90
1049;DHT22;513;51.444;7.196;2023-04-03T08:13:56;2.80;99.90
1049;DHT22;513;51.444;7.196;2023-04-03T08:16:23;2.80;99.90
1049;DHT22;513;51.444;7.196;2023-04-03T08:18:50;3.00;99.90
1049;DHT22;513;51.444;7.196;2023-04-03T08:21:17;3.10;99.90
1049;DHT22;513;51.444;7.196;2023-04-03T08:23:47;3.30;99.90
1049;DHT22;513;51.444;7.196;2023-04-03T08:26:16;3.40;91.40
1049;DHT22;513;51.444;7.196;2023-04-03T08:28:42;3.40;1.00
1049;DHT22;513;51.444;7.196;2023-04-03T08:31:10;3.60;1.00
1049;DHT22;513;51.444;7.196;2023-04-03T08:33:37;3.80;1.00
1049;DHT22;513;51.444;7.196;2023-04-03T08:36:05;3.80;99.90
1049;DHT22;513;51.444;7.196;2023-04-03T08:38:32;3.80;75.80
1049;DHT22;513;51.444;7.196;2023-04-03T08:41:04;4.00;1.00
1049;DHT22;513;51.444;7.196;2023-04-03T08:43:34;4.00;99.90
1049;DHT22;513;51.444;7.196;2023-04-03T08:46:03;3.90;99.90
1049;DHT22;513;51.444;7.196;2023-04-03T08:48:32;4.00;99.90
1049;DHT22;513;51.444;7.196;2023-04-03T08:51:00;3.90;99.90
1049;DHT22;513;51.444;7.196;2023-04-03T08:53:28;3.90;99.90
1049;DHT22;513;51.444;7.196;2023-04-03T08:55:57;3.90;99.90
1049;DHT22;513;51.444;7.196;2023-04-03T08:58:26;3.90;99.90
1049;DHT22;513;51.444;7.196;2023-04-03T09:00:54;3.90;75.50
1049;DHT22;513;51.444;7.196;2023-04-03T09:03:22;4.10;72.10
1049;DHT22;513;51.444;7.196;2023-04-03T09:05:50;3.90;1.00
1049;DHT22;513;51.444;7.196;2023-04-03T09:08:21;4.00;1.00
1049;DHT22;513;51.444;7.196;2023-04-03T09:10:48;4.20;1.00
1049;DHT22;513;51.444;7.196;2023-04-03T09:13:18;4.10;1.00
1049;DHT22;513;51.444;7.196;2023-04-03T09:15:49;4.20;1.00
1049;DHT22;513;51.444;7.196;2023-04-03T09:18:16;4.30;1.00
1049;DHT22;513;51.444;7.196;2023-04-03T09:20:46;4.40;1.00
1049;DHT22;513;51.444;7.196;2023-04-03T09:23:18;4.50;1.00
1049;DHT22;513;51.444;7.196;2023-04-03T09:25:45;4.70;1.00
1049;DHT22;513;51.444;7.196;2023-04-03T09:28:12;4.70;99.90
1049;DHT22;513;51.444;7.196;2023-04-03T09:30:38;4.80;99.90
1049;DHT22;513;51.444;7.196;2023-04-03T09:33:08;4.80;99.90
1049;DHT22;513;51.444;7.196;2023-04-03T09:35:35;4.70;99.90
1049;DHT22;513;51.444;7.196;2023-04-03T09:38:14;4.80;99.90
1049;DHT22;513;51.444;7.196;2023-04-03T09:40:41;4.80;99.90
1049;DHT22;513;51.444;7.196;2023-04-03T09:43:19;5.10;99.90
1049;DHT22;513;51.444;7.196;2023-04-03T09:45:46;5.20;99.90
1049;DHT22;513;51.444;7.196;2023-04-03T09:48:16;5.30;99.90
1049;DHT22;513;51.444;7.196;2023-04-03T09:50:52;5.40;99.90
1049;DHT22;513;51.444;7.196;2023-04-03T09:53:25;5.60;99.90
1049;DHT22;513;51.444;7.196;2023-04-03T09:55:52;5.60;99.90
1049;DHT22;513;51.444;7.196;2023-04-03T09:58:26;5.50;99.90
1049;DHT22;513;51.444;7.196;2023-04-03T10:00:57;5.60;99.90
1049;DHT22;513;51.444;7.196;2023-04-03T10:03:25;5.60;99.90
1049;DHT22;513;51.444;7.196;2023-04-03T10:05:53;5.80;99.90
1049;DHT22;513;51.444;7.196;2023-04-03T10:08:22;6.00;99.90
1049;DHT22;513;51.444;7.196;2023-04-03T10:11:05;5.60;99.90
1049;DHT22;513;51.444;7.196;2023-04-03T10:13:32;5.80;99.90
1049;DHT22;513;51.444;7.196;2023-04-03T10:16:00;5.80;99.90
1049;DHT22;513;51.444;7.196;2023-04-03T10:18:31;6.00;99.90
1049;DHT22;513;51.444;7.196;2023-04-03T10:20:59;5.90;99.90
1049;DHT22;513;51.444;7.196;2023-04-03T10:23:30;6.00;99.90
1049;DHT22;513;51.444;7.196;2023-04-03T10:26:01;6.20;99.90
1049;DHT22;513;51.444;7.196;2023-04-03T10:28:31;6.40;99.90
1049;DHT22;513;51.444;7.196;2023-04-03T10:31:02;6.30;99.90
1049;DHT22;513;51.444;7.196;2023-04-03T10:33:36;6.20;99.90
1049;DHT22;513;51.444;7.196;2023-04-03T10:36:17;6.20;99.90
1049;DHT22;513;51.444;7.196;2023-04-03T10:38:48;6.20;99.90
1049;DHT22;513;51.444;7.196;2023-04-03T10:41:19;6.20;99.90
1049;DHT22;513;51.444;7.196;2023-04-03T10:43:50;6.40;99.90
1049;DHT22;513;51.444;7.196;2023-04-03T10:46:21;6.60;99.90
1049;DHT22;513;51.444;7.196;2023-04-03T10:48:55;6.60;99.90
1049;DHT22;513;51.444;7.196;2023-04-03T10:51:25;6.70;99.90
1049;DHT22;513;51.444;7.196;2023-04-03T10:53:55;6.50;99.90
1049;DHT22;513;51.444;7.196;2023-04-03T10:56:26;6.40;99.90
1049;DHT22;513;51.444;7.196;2023-04-03T10:58:56;6.50;99.90
1049;DHT22;513;51.444;7.196;2023-04-03T11:01:26;6.50;99.90
1049;DHT22;513;51.444;7.196;2023-04-03T11:03:58;6.40;99.90
1049;DHT22;513;51.444;7.196;2023-04-03T11:06:25;6.80;99.90
1049;DHT22;513;51.444;7.196;2023-04-03T11:08:53;6.70;99.90
1049;DHT22;513;51.444;7.196;2023-04-03T11:11:25;6.60;99.90
1049;DHT22;513;51.444;7.196;2023-04-03T11:13:54;6.60;99.90
1049;DHT22;513;51.444;7.196;2023-04-03T11:16:23;6.50;99.90
1049;DHT22;513;51.444;7.196;2023-04-03T11:18:51;6.60;99.90
1049;DHT22;513;51.444;7.196;2023-04-03T11:21:21;6.70;99.90
1049;DHT22;513;51.444;7.196;2023-04-03T11:23:50;6.60;99.90
1049;DHT22;513;51.444;7.196;2023-04-03T11:26:18;6.70;99.90
1049;DHT22;513;51.444;7.196;2023-04-03T11:28:46;6.50;99.90
1049;DHT22;513;51.444;7.196;2023-04-03T11:31:19;6.80;99.90
1049;DHT22;513;51.444;7.196;2023-04-03T11:33:51;6.80;99.90
1049;DHT22;513;51.444;7.196;2023-04-03T11:36:23;6.90;99.90
1049;DHT22;513;51.444;7.196;2023-04-03T11:38:51;7.00;99.90
1049;DHT22;513;51.444;7.196;2023-04-03T11:41:23;6.80;99.90
1049;DHT22;513;51.444;7.196;2023-04-03T11:43:55;6.70;99.90
1049;DHT22;513;51.444;7.196;2023-04-03T11:46:22;6.50;99.90
1049;DHT22;513;51.444;7.196;2023-04-03T11:49:12;6.60;99.90
1049;DHT22;513;51.444;7.196;2023-04-03T11:51:59;6.90;99.90
1049;DHT22;513;51.444;7.196;2023-04-03T12:00:20;6.80;99.90
1049;DHT22;513;51.444;7.196;2023-04-03T12:02:52;6.90;99.90
1049;DHT22;513;51.444;7.196;2023-04-03T12:05:26;6.90;99.90
1049;DHT22;513;51.444;7.196;2023-04-03T12:10:35;7.10;99.90
1049;DHT22;513;51.444;7.196;2023-04-03T12:13:12;7.30;99.90
1049;DHT22;513;51.444;7.196;2023-04-03T12:15:49;7.30;99.90
1049;DHT22;513;51.444;7.196;2023-04-03T12:21:07;7.00;99.90
1049;DHT22;513;51.444;7.196;2023-04-03T12:23:34;7.10;99.90
1049;DHT22;513;51.444;7.196;2023-04-03T12:26:05;7.20;99.90
1049;DHT22;513;51.444;7.196;2023-04-03T12:28:36;7.20;99.90
1049;DHT22;513;51.444;7.196;2023-04-03T12:31:04;7.20;99.90
1049;DHT22;513;51.444;7.196;2023-04-03T12:33:36;7.20;99.90
1049;DHT22;513;51.444;7.196;2023-04-03T12:36:07;7.40;99.90
1049;DHT22;513;51.444;7.196;2023-04-03T12:38:40;7.60;99.90
1049;DHT22;513;51.444;7.196;2023-04-03T12:41:14;7.50;99.90
1049;DHT22;513;51.444;7.196;2023-04-03T12:43:46;7.30;99.90
1049;DHT22;513;51.444;7.196;2023-04-03T12:46:14;7.10;99.90
1049;DHT22;513;51.444;7.196;2023-04-03T12:48:47;7.40;99.90
1049;DHT22;513;51.444;7.196;2023-04-03T12:51:14;7.60;99.90
1049;DHT22;513;51.444;7.196;2023-04-03T12:53:41;7.70;99.90
1049;DHT22;513;51.444;7.196;2023-04-03T12:56:20;7.70;99.90
1049;DHT22;513;51.444;7.196;2023-04-03T12:58:47;7.70;99.90
1049;DHT22;513;51.444;7.196;2023-04-03T13:01:14;7.50;99.90
1049;DHT22;513;51.444;7.196;2023-04-03T13:03:44;7.40;99.90
1049;DHT22;513;51.444;7.196;2023-04-03T13:06:13;7.50;99.90
1049;DHT22;513;51.444;7.196;2023-04-03T13:08:47;7.50;99.90
1049;DHT22;513;51.444;7.196;2023-04-03T13:11:14;7.60;99.90
1049;DHT22;513;51.444;7.196;2023-04-03T13:13:46;7.50;99.90
1049;DHT22;513;51.444;7.196;2023-04-03T13:16:20;7.50;99.90
1049;DHT22;513;51.444;7.196;2023-04-03T13:18:49;7.40;99.90
1049;DHT22;513;51.444;7.196;2023-04-03T13:21:17;7.60;99.90
1049;DHT22;513;51.444;7.196;2023-04-03T13:23:46;7.40;99.90
1049;DHT22;513;51.444;7.196;2023-04-03T13:26:15;7.50;99.90
1049;DHT22;513;51.444;7.196;2023-04-03T13:28:42;7.70;99.90
1049;DHT22;513;51.444;7.196;2023-04-03T13:31:18;7.70;99.90
1049;DHT22;513;51.444;7.196;2023-04-03T13:33:51;7.70;99.90
1049;DHT22;513;51.444;7.196;2023-04-03T13:36:19;7.60;99.90
1049;DHT22;513;51.444;7.196;2023-04-03T13:38:47;7.70;99.90
1049;DHT22;513;51.444;7.196;2023-04-03T13:41:24;7.60;99.90
1049;DHT22;513;51.444;7.196;2023-04-03T13:43:51;7.30;99.90
1049;DHT22;513;51.444;7.196;2023-04-03T13:46:26;7.20;99.90
1049;DHT22;513;51.444;7.196;2023-04-03T13:48:54;7.30;99.90
1049;DHT22;513;51.444;7.196;2023-04-03T13:51:22;7.60;99.90
1049;DHT22;513;51.444;7.196;2023-04-03T13:53:50;7.70;99.90
1049;DHT22;513;51.444;7.196;2023-04-03T13:56:19;8.00;99.90
1049;DHT22;513;51.444;7.196;2023-04-03T13:58:58;7.50;99.90
1049;DHT22;513;51.444;7.196;2023-04-03T14:01:32;7.60;99.90
1049;DHT22;513;51.444;7.196;2023-04-03T14:03:59;7.60;99.90
1049;DHT22;513;51.444;7.196;2023-04-03T14:06:26;7.50;99.90
1049;DHT22;513;51.444;7.196;2023-04-03T14:08:54;7.80;99.90
1049;DHT22;513;51.444;7.196;2023-04-03T14:11:21;7.90;99.90
1049;DHT22;513;51.444;7.196;2023-04-03T14:13:49;7.90;99.90
1049;DHT22;513;51.444;7.196;2023-04-03T14:16:18;7.60;99.90
1049;DHT22;513;51.444;7.196;2023-04-03T14:18:47;7.20;99.90
1049;DHT22;513;51.444;7.196;2023-04-03T14:21:14;7.30;99.90
1049;DHT22;513;51.444;7.196;2023-04-03T14:23:42;7.20;99.90
1049;DHT22;513;51.444;7.196;2023-04-03T14:26:10;7.20;99.90
1049;DHT22;513;51.444;7.196;2023-04-03T14:28:36;7.30;99.90
1049;DHT22;513;51.444;7.196;2023-04-03T14:31:05;7.40;99.90
1049;DHT22;513;51.444;7.196;2023-04-03T14:33:32;7.40;99.90
1049;DHT22;513;51.444;7.196;2023-04-03T14:36:01;7.30;99.90
1049;DHT22;513;51.444;7.196;2023-04-03T14:38:29;7.20;99.90
1049;DHT22;513;51.444;7.196;2023-04-03T14:40:56;7.20;99.90
1049;DHT22;513;51.444;7.196;2023-04-03T14:43:23;7.20;99.90
1049;DHT22;513;51.444;7.196;2023-04-03T14:45:50;7.30;99.90
1049;DHT22;513;51.444;7.196;2023-04-03T14:48:18;7.50;99.90
1049;DHT22;513;51.444;7.196;2023-04-03T14:50:45;7.70;99.90
1049;DHT22;513;51.444;7.196;2023-04-03T14:53:13;7.60;99.90
1049;DHT22;513;51.444;7.196;2023-04-03T14:55:41;7.30;99.90
1049;DHT22;513;51.444;7.196;2023-04-03T14:58:09;7.30;99.90
1049;DHT22;513;51.444;7.196;2023-04-03T15:00:38;7.40;99.90
1049;DHT22;513;51.444;7.196;2023-04-03T15:03:04;7.40;99.90
1049;DHT22;513;51.444;7.196;2023-04-03T15:05:31;7.50;99.90
1049;DHT22;513;51.444;7.196;2023-04-03T15:07:58;7.60;99.90
1049;DHT22;513;51.444;7.196;2023-04-03T15:10:27;7.60;99.90
1049;DHT22;513;51.444;7.196;2023-04-03T15:12:54;7.60;99.90
1049;DHT22;513;51.444;7.196;2023-04-03T15:15:21;7.70;99.90
1049;DHT22;513;51.444;7.196;2023-04-03T15:17:50;7.40;99.90
1049;DHT22;513;51.444;7.196;2023-04-03T15:20:19;7.20;99.90
1049;DHT22;513;51.444;7.196;2023-04-03T15:22:46;7.20;99.90
1049;DHT22;513;51.444;7.196;2023-04-03T15:25:13;7.30;99.90
1049;DHT22;513;51.444;7.196;2023-04-03T15:27:41;7.30;99.90
1049;DHT22;513;51.444;7.196;2023-04-03T15:30:10;7.10;99.90
1049;DHT22;513;51.444;7.196;2023-04-03T15:32:37;7.30;99.90
1049;DHT22;513;51.444;7.196;2023-04-03T15:35:04;7.40;99.90
1049;DHT22;513;51.444;7.196;2023-04-03T15:37:31;7.50;99.90
1049;DHT22;513;51.444;7.196;2023-04-03T15:39:57;7.40;99.90
1049;DHT22;513;51.444;7.196;2023-04-03T15:42:24;7.30;99.90
1049;DHT22;513;51.444;7.196;2023-04-03T15:44:52;7.30;99.90
1049;DHT22;513;51.444;7.196;2023-04-03T15:47:18;7.40;99.90
1049;DHT22;513;51.444;7.196;2023-04-03T15:49:45;7.40;99.90
1049;DHT22;513;51.444;7.196;2023-04-03T15:52:12;7.40;99.90
1049;DHT22;513;51.444;7.196;2023-04-03T15:54:38;7.30;99.90
1049;DHT22;513;51.444;7.196;2023-04-03T15:57:05;7.30;99.90
1049;DHT22;513;51.444;7.196;2023-04-03T15:59:31;7.40;99.90
1049;DHT22;513;51.444;7.196;2023-04-03T16:01:59;7.40;99.90
1049;DHT22;513;51.444;7.196;2023-04-03T16:04:27;7.40;99.90
1049;DHT22;513;51.444;7.196;2023-04-03T16:06:54;7.50;99.90
1049;DHT22;513;51.444;7.196;2023-04-03T16:09:20;7.40;99.90
1049;DHT22;513;51.444;7.196;2023-04-03T16:11:47;7.20;99.90
1049;DHT22;513;51.444;7.196;2023-04-03T16:14:13;7.20;99.90
1049;DHT22;513;51.444;7.196;2023-04-03T16:16:40;7.10;99.90
1049;DHT22;513;51.444;7.196;2023-04-03T16:19:08;7.00;99.90
1049;DHT22;513;51.444;7.196;2023-04-03T16:21:35;7.00;99.90
1049;DHT22;513;51.444;7.196;2023-04-03T16:24:02;7.00;99.90
1049;DHT22;513;51.444;7.196;2023-04-03T16:26:29;6.90;99.90
1049;DHT22;513;51.444;7.196;2023-04-03T16:28:55;6.80;99.90
1049;DHT22;513;51.444;7.196;2023-04-03T16:31:22;6.80;99.90
1049;DHT22;513;51.444;7.196;2023-04-03T16:33:49;6.80;99.90
1049;DHT22;513;51.444;7.196;2023-04-03T16:36:17;6.90;99.90
1049;DHT22;513;51.444;7.196;2023-04-03T16:38:43;7.00;99.90
1049;DHT22;513;51.444;7.196;2023-04-03T16:41:10;7.00;99.90
1049;DHT22;513;51.444;7.196;2023-04-03T16:43:36;6.80;99.90
1049;DHT22;513;51.444;7.196;2023-04-03T16:46:03;6.80;99.90
1049;DHT22;513;51.444;7.196;2023-04-03T16:48:30;6.70;99.90
1049;DHT22;513;51.444;7.196;2023-04-03T16:50:57;6.60;99.90
1049;DHT22;513;51.444;7.196;2023-04-03T16:53:25;6.60;99.90